createdAt,value
2023-02-19T00:01:13.302Z,101734.97
2023-02-19T00:03:41.154Z,101736.69
2023-02-19T00:06:10.106Z,101737.63
2023-02-19T00:08:38.105Z,101742.84
2023-02-19T00:11:08.024Z,101739.44
2023-02-19T00:13:43.425Z,101743.69
2023-02-19T00:16:21.535Z,101736.00
2023-02-19T00:18:48.590Z,101743.84
2023-02-19T00:21:17.185Z,101746.44
2023-02-19T00:23:43.973Z,101748.19
2023-02-19T00:26:18.571Z,101751.66
2023-02-19T00:28:46.456Z,101743.91
2023-02-19T00:31:21.974Z,101747.41
2023-02-19T00:33:50.874Z,101759.56
2023-02-19T00:36:17.947Z,101750.03
2023-02-19T00:38:44.842Z,101751.78
2023-02-19T00:41:19.411Z,101748.34
2023-02-19T00:43:56.088Z,101758.75
2023-02-19T00:46:26.987Z,101757.94
2023-02-19T00:48:54.412Z,101757.09
2023-02-19T00:51:23.248Z,101753.59
2023-02-19T00:53:50.062Z,101759.69
2023-02-19T00:56:17.076Z,101756.22
2023-02-19T00:58:44.046Z,101753.63
2023-02-19T01:01:11.691Z,101751.00
2023-02-19T01:03:39.779Z,101758.78
2023-02-19T01:06:08.387Z,101763.97
2023-02-19T01:08:35.549Z,101771.81
2023-02-19T01:11:03.492Z,101773.56
2023-02-19T01:13:30.260Z,101770.97
2023-02-19T01:16:15.079Z,101770.94
2023-02-19T01:18:42.341Z,101776.22
2023-02-19T01:21:12.938Z,101776.22
2023-02-19T01:23:40.100Z,101777.97
2023-02-19T01:26:09.513Z,101783.16
2023-02-19T01:28:36.070Z,101782.31
2023-02-19T01:31:04.547Z,101784.06
2023-02-19T01:36:02.774Z,101779.88
2023-02-19T01:38:29.289Z,101778.13
2023-02-19T01:41:00.676Z,101783.31
2023-02-19T01:43:27.783Z,101791.13
2023-02-19T01:45:55.258Z,101785.13
2023-02-19T01:48:36.093Z,101792.06
2023-02-19T01:51:11.129Z,101787.72
2023-02-19T01:53:41.595Z,101790.41
2023-02-19T01:56:09.388Z,101793.91
2023-02-19T01:58:37.251Z,101787.88
2023-02-19T02:01:06.842Z,101793.13
2023-02-19T02:03:38.307Z,101784.53
2023-02-19T02:06:16.994Z,101785.44
2023-02-19T02:09:02.757Z,101793.22
2023-02-19T02:11:29.405Z,101799.31
2023-02-19T02:13:57.558Z,101797.56
2023-02-19T02:16:40.734Z,101792.38
2023-02-19T02:19:10.152Z,101795.84
2023-02-19T02:21:53.408Z,101794.13
2023-02-19T02:24:41.564Z,101796.75
2023-02-19T02:27:52.188Z,101789.81
2023-02-19T02:30:39.841Z,101792.44
2023-02-19T02:33:15.821Z,101798.59
2023-02-19T02:35:57.330Z,101797.78
2023-02-19T02:38:31.537Z,101802.97
2023-02-19T02:40:58.952Z,101796.94
2023-02-19T02:43:25.752Z,101799.56
2023-02-19T02:45:52.369Z,101808.28
2023-02-19T02:48:33.628Z,101811.72
2023-02-19T02:51:06.159Z,101805.72
2023-02-19T02:53:58.325Z,101812.66
2023-02-19T02:56:26.298Z,101815.25
2023-02-19T02:58:54.935Z,101810.94
2023-02-19T03:01:48.700Z,101813.50
2023-02-19T03:04:36.227Z,101816.94
2023-02-19T03:07:08.912Z,101820.50
2023-02-19T03:09:43.159Z,101821.34
2023-02-19T03:12:33.244Z,101813.53
2023-02-19T03:15:25.515Z,101829.09
2023-02-19T03:18:16.867Z,101828.25
2023-02-19T03:20:48.732Z,101830.84
2023-02-19T03:23:17.483Z,101825.66
2023-02-19T03:26:03.044Z,101833.44
2023-02-19T03:28:53.788Z,101830.84
2023-02-19T03:31:24.574Z,101830.88
2023-02-19T03:33:57.502Z,101837.81
2023-02-19T03:36:29.459Z,101843.03
2023-02-19T03:39:06.773Z,101843.91
2023-02-19T03:41:48.432Z,101842.09
2023-02-19T03:44:38.229Z,101842.97
2023-02-19T03:47:10.768Z,101846.47
2023-02-19T03:49:42.786Z,101854.28
2023-02-19T03:52:16.729Z,101854.28
2023-02-19T03:54:58.624Z,101857.75
2023-02-19T03:57:33.614Z,101864.72
2023-02-19T04:00:09.834Z,101864.78
2023-02-19T04:02:44.517Z,101868.25
2023-02-19T04:05:19.763Z,101871.72
2023-02-19T04:07:49.987Z,101869.16
2023-02-19T04:10:18.962Z,101875.22
2023-02-19T04:12:52.679Z,101880.47
2023-02-19T04:15:25.249Z,101887.41
2023-02-19T04:17:58.768Z,101881.34
2023-02-19T04:20:29.899Z,101890.94
2023-02-19T04:22:57.685Z,101897.06
2023-02-19T04:25:27.294Z,101898.00
2023-02-19T04:27:53.895Z,101898.84
2023-02-19T04:30:21.784Z,101904.06
2023-02-19T04:32:48.490Z,101910.22
2023-02-19T04:35:14.965Z,101913.75
2023-02-19T04:37:41.672Z,101912.91
2023-02-19T04:40:08.957Z,101921.56
2023-02-19T04:42:35.452Z,101925.00
2023-02-19T04:45:01.993Z,101924.16
2023-02-19T04:47:28.528Z,101937.97
2023-02-19T04:49:55.063Z,101937.09
2023-02-19T04:52:21.532Z,101941.44
2023-02-19T04:54:48.659Z,101944.06
2023-02-19T04:57:15.294Z,101952.75
2023-02-19T04:59:41.730Z,101960.53
2023-02-19T05:02:08.709Z,101960.59
2023-02-19T05:04:35.277Z,101957.16
2023-02-19T05:07:01.770Z,101958.03
2023-02-19T05:09:28.323Z,101958.03
2023-02-19T05:11:54.830Z,101961.47
2023-02-19T05:14:21.370Z,101974.44
2023-02-19T05:16:47.963Z,101976.22
2023-02-19T05:19:14.575Z,101965.91
2023-02-19T05:21:41.069Z,101975.38
2023-02-19T05:24:08.421Z,101984.91
2023-02-19T05:26:35.175Z,101985.78
2023-02-19T05:29:02.369Z,101986.66
2023-02-19T05:31:29.044Z,101985.78
2023-02-19T05:33:56.503Z,101986.69
2023-02-19T05:36:23.956Z,101984.13
2023-02-19T05:38:55.365Z,101991.88
2023-02-19T05:41:24.756Z,101984.13
2023-02-19T05:43:51.528Z,101992.75
2023-02-19T05:46:20.233Z,101986.75
2023-02-19T05:48:48.622Z,101996.28
2023-02-19T05:51:18.797Z,101990.25
2023-02-19T05:53:45.864Z,101988.53
2023-02-19T05:56:32.444Z,101987.63
2023-02-19T05:59:00.960Z,101994.59
2023-02-19T06:01:29.446Z,102005.84
2023-02-19T06:03:57.610Z,102012.78
2023-02-19T06:06:25.431Z,102002.41
2023-02-19T06:08:52.105Z,102011.03
2023-02-19T06:11:19.390Z,102009.28
2023-02-19T06:13:46.436Z,102015.38
2023-02-19T06:16:13.230Z,102027.53
2023-02-19T06:18:42.590Z,102027.53
2023-02-19T06:21:11.959Z,102043.97
2023-02-19T06:23:39.604Z,102041.44
2023-02-19T06:26:09.259Z,102050.09
2023-02-19T06:28:36.314Z,102055.31
2023-02-19T06:31:03.773Z,102058.78
2023-02-19T06:33:30.365Z,102061.41
2023-02-19T06:36:02.565Z,102053.63
2023-02-19T06:38:29.656Z,102058.81
2023-02-19T06:41:01.118Z,102061.41
2023-02-19T06:43:27.818Z,102068.34
2023-02-19T06:45:54.851Z,102070.94
2023-02-19T06:48:21.389Z,102069.22
2023-02-19T06:50:47.910Z,102073.56
2023-02-19T06:53:14.460Z,102073.59
2023-02-19T06:55:41.486Z,102077.91
2023-02-19T06:58:07.956Z,102078.78
2023-02-19T07:00:35.128Z,102088.31
2023-02-19T07:03:02.873Z,102085.72
2023-02-19T07:05:31.116Z,102093.50
2023-02-19T07:07:57.648Z,102096.97
2023-02-19T07:10:24.096Z,102108.22
2023-02-19T07:12:50.601Z,102111.66
2023-02-19T07:15:17.125Z,102111.69
2023-02-19T07:17:43.612Z,102110.81
2023-02-19T07:20:10.393Z,102118.63
2023-02-19T07:22:36.835Z,102120.31
2023-02-19T07:25:03.342Z,102131.56
2023-02-19T07:27:29.853Z,102132.41
2023-02-19T07:29:56.424Z,102138.44
2023-02-19T07:32:22.945Z,102134.09
2023-02-19T07:34:49.467Z,102136.69
2023-02-19T07:37:15.940Z,102141.00
2023-02-19T07:39:42.534Z,102150.47
2023-02-19T07:42:09.001Z,102156.50
2023-02-19T07:44:35.533Z,102146.13
2023-02-19T07:47:02.005Z,102145.25
2023-02-19T07:49:28.972Z,102149.53
2023-02-19T07:51:55.838Z,102158.22
2023-02-19T07:54:22.346Z,102165.13
2023-02-19T07:56:48.991Z,102173.78
2023-02-19T07:59:16.186Z,102164.19
2023-02-19T08:02:01.445Z,102167.59
2023-02-19T08:04:27.959Z,102178.03
2023-02-19T08:06:54.508Z,102178.97
2023-02-19T08:09:21.017Z,102178.06
2023-02-19T08:12:06.159Z,102184.06
2023-02-19T08:14:32.887Z,102188.31
2023-02-19T08:16:59.437Z,102186.56
2023-02-19T08:19:26.027Z,102199.53
2023-02-19T08:21:53.568Z,102201.31
2023-02-19T08:24:20.156Z,102203.09
2023-02-19T08:26:46.746Z,102217.81
2023-02-19T08:29:13.288Z,102212.66
2023-02-19T08:31:39.855Z,102228.22
2023-02-19T08:34:06.554Z,102219.50
2023-02-19T08:36:33.088Z,102221.16
2023-02-19T08:38:59.789Z,102228.09
2023-02-19T08:41:26.502Z,102228.94
2023-02-19T08:43:53.098Z,102239.34
2023-02-19T08:46:19.756Z,102247.19
2023-02-19T08:48:46.292Z,102248.06
2023-02-19T08:51:13.104Z,102241.19
2023-02-19T08:53:40.786Z,102231.63
2023-02-19T08:56:13.554Z,102233.31
2023-02-19T08:58:40.113Z,102239.41
2023-02-19T09:01:12.374Z,102241.91
2023-02-19T09:03:39.713Z,102253.13
2023-02-19T09:06:06.495Z,102235.88
2023-02-19T09:08:33.104Z,102231.53
2023-02-19T09:11:04.643Z,102246.19
2023-02-19T09:13:31.145Z,102241.03
2023-02-19T09:15:57.941Z,102255.72
2023-02-19T09:18:25.766Z,102266.94
2023-02-19T09:20:52.469Z,102249.66
2023-02-19T09:23:19.062Z,102258.19
2023-02-19T09:25:45.609Z,102263.25
2023-02-19T09:28:12.254Z,102259.53
2023-02-19T09:30:38.813Z,102272.34
2023-02-19T09:33:06.096Z,102300.22
2023-02-19T09:35:32.653Z,102304.59
2023-02-19T09:38:01.905Z,102306.44
2023-02-19T09:40:30.286Z,102307.31
2023-02-19T09:42:57.216Z,102314.28
2023-02-19T09:45:26.287Z,102332.56
2023-02-19T09:47:56.002Z,102341.56
2023-02-19T09:50:32.835Z,102337.59
2023-02-19T09:53:03.860Z,102349.88
2023-02-19T09:55:40.776Z,102360.38
2023-02-19T09:58:30.657Z,102356.13
2023-02-19T10:01:01.241Z,102360.53
2023-02-19T10:03:39.183Z,102359.75
2023-02-19T10:06:13.874Z,102371.00
2023-02-19T10:08:42.016Z,102375.31
2023-02-19T10:11:12.422Z,102395.13
2023-02-19T10:13:51.289Z,102404.63
2023-02-19T10:16:23.806Z,102402.03
2023-02-19T10:18:50.652Z,102401.22
2023-02-19T10:21:19.952Z,102415.88
2023-02-19T10:23:53.242Z,102422.75
2023-02-19T10:26:20.242Z,102424.38
2023-02-19T10:28:46.741Z,102417.38
2023-02-19T10:31:25.153Z,102422.41
2023-02-19T10:33:56.980Z,102427.63
2023-02-19T10:36:34.088Z,102428.41
2023-02-19T10:39:03.282Z,102431.81
2023-02-19T10:41:31.473Z,102431.84
2023-02-19T10:44:00.933Z,102434.47
2023-02-19T10:46:31.944Z,102438.72
2023-02-19T10:49:01.891Z,102431.78
2023-02-19T10:51:37.710Z,102433.69
2023-02-19T10:54:17.331Z,102437.28
2023-02-19T10:56:43.878Z,102437.34
2023-02-19T10:59:22.493Z,102433.03
2023-02-19T11:02:00.864Z,102432.25
2023-02-19T11:04:33.904Z,102427.13
2023-02-19T11:07:13.860Z,102417.63
2023-02-19T11:09:47.939Z,102428.97
2023-02-19T11:12:23.036Z,102429.84
2023-02-19T11:14:49.722Z,102438.44
2023-02-19T11:17:28.695Z,102444.38
2023-02-19T11:20:14.141Z,102446.91
2023-02-19T11:22:42.895Z,102452.03
2023-02-19T11:25:16.346Z,102446.91
2023-02-19T11:28:04.077Z,102454.75
2023-02-19T11:30:30.539Z,102450.50
2023-02-19T11:33:13.211Z,102446.16
2023-02-19T11:35:40.135Z,102451.31
2023-02-19T11:38:10.580Z,102458.19
2023-02-19T11:40:56.969Z,102459.03
2023-02-19T11:43:29.393Z,102464.22
2023-02-19T11:46:20.083Z,102468.53
2023-02-19T11:48:55.505Z,102463.38
2023-02-19T11:52:15.569Z,102464.28
2023-02-19T11:54:51.163Z,102459.19
2023-02-19T11:57:56.206Z,102454.03
2023-02-19T12:00:22.826Z,102454.16
2023-02-19T12:02:49.694Z,102461.13
2023-02-19T12:05:48.511Z,102459.56
2023-02-19T12:08:41.124Z,102463.94
2023-02-19T12:11:25.654Z,102464.97
2023-02-19T12:14:00.895Z,102470.09
2023-02-19T12:16:31.421Z,102473.50
2023-02-19T12:19:58.609Z,102475.97
2023-02-19T12:22:32.601Z,102478.63
2023-02-19T12:25:35.840Z,102477.72
2023-02-19T12:28:26.644Z,102468.97
2023-02-19T12:30:59.602Z,102477.75
2023-02-19T12:33:41.568Z,102476.09
2023-02-19T12:36:13.990Z,102478.75
2023-02-19T12:38:49.636Z,102496.00
2023-02-19T12:41:35.778Z,102487.41
2023-02-19T12:44:11.078Z,102489.19
2023-02-19T12:46:46.749Z,102496.19
2023-02-19T12:49:30.113Z,102506.63
2023-02-19T12:52:03.153Z,102507.47
2023-02-19T12:54:35.326Z,102506.47
2023-02-19T12:57:15.631Z,102511.56
2023-02-19T12:59:53.524Z,102522.81
2023-02-19T13:02:26.578Z,102528.00
2023-02-19T13:05:05.753Z,102523.66
2023-02-19T13:08:06.396Z,102528.00
2023-02-19T13:10:42.894Z,102534.09
2023-02-19T13:13:19.214Z,102535.78
2023-02-19T13:15:50.387Z,102545.22
2023-02-19T13:18:24.194Z,102550.44
2023-02-19T13:20:51.844Z,102559.88
2023-02-19T13:23:49.985Z,102556.44
2023-02-19T13:26:34.936Z,102563.38
2023-02-19T13:29:20.099Z,102566.88
2023-02-19T13:32:11.759Z,102558.13
2023-02-19T13:34:59.523Z,102558.94
2023-02-19T13:37:26.701Z,102564.03
2023-02-19T13:39:55.598Z,102565.66
2023-02-19T13:42:29.071Z,102562.91
2023-02-19T13:44:58.023Z,102566.41
2023-02-19T13:47:54.655Z,102578.47
2023-02-19T13:50:30.846Z,102578.47
2023-02-19T13:53:01.820Z,102575.97
2023-02-19T13:55:44.090Z,102576.84
2023-02-19T13:58:39.562Z,102579.47
2023-02-19T14:01:10.766Z,102578.56
2023-02-19T14:03:37.360Z,102581.16
2023-02-19T14:06:06.710Z,102586.41
2023-02-19T14:08:58.516Z,102576.03
2023-02-19T14:11:44.001Z,102589.84
2023-02-19T14:14:32.064Z,102585.41
2023-02-19T14:17:08.549Z,102575.88
2023-02-19T14:19:52.134Z,102572.38
2023-02-19T14:22:46.515Z,102568.03
2023-02-19T14:25:31.284Z,102573.28
2023-02-19T14:28:30.115Z,102562.13
2023-02-19T14:31:33.779Z,102554.38
2023-02-19T14:34:06.927Z,102550.00
2023-02-19T14:36:51.781Z,102550.88
2023-02-19T14:39:37.774Z,102545.63
2023-02-19T14:42:22.834Z,102536.16
2023-02-19T14:45:02.240Z,102527.53
2023-02-19T14:47:33.313Z,102528.31
2023-02-19T14:49:59.691Z,102527.38
2023-02-19T14:52:45.598Z,102526.41
2023-02-19T14:55:23.446Z,102529.81
2023-02-19T14:57:53.233Z,102521.94
2023-02-19T15:00:22.854Z,102513.31
2023-02-19T15:02:55.692Z,102506.34
2023-02-19T15:05:27.548Z,102516.63
2023-02-19T15:07:58.115Z,102506.28
2023-02-19T15:10:28.011Z,102506.41
2023-02-19T15:13:01.011Z,102521.09
2023-02-19T15:15:30.336Z,102528.09
2023-02-19T15:17:59.135Z,102544.47
2023-02-19T15:20:29.740Z,102553.22
2023-02-19T15:22:58.753Z,102555.94
2023-02-19T15:25:32.893Z,102572.41
2023-02-19T15:28:24.090Z,102571.56
2023-02-19T15:31:05.560Z,102582.06
2023-02-19T15:33:32.134Z,102585.56
2023-02-19T15:36:01.768Z,102593.34
2023-02-19T15:38:29.325Z,102591.63
2023-02-19T15:40:58.826Z,102583.88
2023-02-19T15:43:27.625Z,102579.56
2023-02-19T15:46:00.339Z,102587.44
2023-02-19T15:48:35.234Z,102590.09
2023-02-19T15:51:09.418Z,102577.13
2023-02-19T15:53:47.701Z,102569.41
2023-02-19T15:56:33.192Z,102572.81
2023-02-19T15:59:06.720Z,102580.66
2023-02-19T16:01:36.752Z,102591.03
2023-02-19T16:04:04.341Z,102597.97
2023-02-19T16:06:30.694Z,102607.50
2023-02-19T16:09:06.517Z,102604.06
2023-02-19T16:11:40.246Z,102611.03
2023-02-19T16:14:29.241Z,102621.41
2023-02-19T16:16:57.240Z,102616.28
2023-02-19T16:19:28.492Z,102621.50
2023-02-19T16:21:55.597Z,102616.31
2023-02-19T16:24:32.248Z,102620.59
2023-02-19T16:26:59.244Z,102617.19
2023-02-19T16:29:29.248Z,102621.50
2023-02-19T16:31:59.518Z,102619.81
2023-02-19T16:34:50.434Z,102628.44
2023-02-19T16:37:41.168Z,102628.44
2023-02-19T16:40:07.546Z,102618.97
2023-02-19T16:42:34.686Z,102624.19
2023-02-19T16:45:01.183Z,102626.78
2023-02-19T16:47:40.426Z,102636.25
2023-02-19T16:50:14.202Z,102636.28
2023-02-19T16:52:52.718Z,102646.63
2023-02-19T16:55:19.339Z,102644.97
2023-02-19T16:57:45.749Z,102636.34
2023-02-19T17:00:23.344Z,102628.56
2023-02-19T17:02:54.447Z,102629.41
2023-02-19T17:05:22.930Z,102620.81
2023-02-19T17:07:50.067Z,102620.81
2023-02-19T17:10:18.667Z,102617.38
2023-02-19T17:12:45.231Z,102621.69
2023-02-19T17:15:12.580Z,102622.59
2023-02-19T17:17:39.214Z,102627.78
2023-02-19T17:20:17.962Z,102627.78
2023-02-19T17:22:44.548Z,102627.81
2023-02-19T17:25:11.115Z,102644.19
2023-02-19T17:27:37.542Z,102650.25
2023-02-19T17:30:11.929Z,102646.81
2023-02-19T17:32:38.402Z,102651.16
2023-02-19T17:35:05.580Z,102658.91
2023-02-19T17:37:31.961Z,102658.03
2023-02-19T17:39:58.284Z,102660.63
2023-02-19T17:42:25.827Z,102666.69
2023-02-19T17:44:53.815Z,102658.91
2023-02-19T17:47:21.310Z,102673.59
2023-02-19T17:49:47.848Z,102687.44
2023-02-19T17:52:17.514Z,102689.16
2023-02-19T17:54:44.087Z,102690.03
2023-02-19T17:57:10.549Z,102682.25
2023-02-19T17:59:36.912Z,102672.78
2023-02-19T18:02:03.369Z,102677.97
2023-02-19T18:04:29.868Z,102674.50
2023-02-19T18:06:56.266Z,102675.38
2023-02-19T18:09:22.980Z,102663.28
2023-02-19T18:11:49.512Z,102659.84
2023-02-19T18:14:15.989Z,102659.84
2023-02-19T18:16:50.219Z,102650.34
2023-02-19T18:19:17.295Z,102654.66
2023-02-19T18:21:43.664Z,102646.91
2023-02-19T18:24:10.068Z,102648.63
2023-02-19T18:26:36.575Z,102652.13
2023-02-19T18:29:03.058Z,102648.72
2023-02-19T18:31:32.529Z,102645.22
2023-02-19T18:33:59.094Z,102640.97
2023-02-19T18:36:25.433Z,102647.88
2023-02-19T18:38:51.770Z,102648.75
2023-02-19T18:41:20.758Z,102653.06
2023-02-19T18:43:48.493Z,102652.22
2023-02-19T18:46:15.217Z,102654.81
2023-02-19T18:48:41.737Z,102650.50
2023-02-19T18:51:12.135Z,102648.81
2023-02-19T18:53:38.777Z,102648.84
2023-02-19T18:56:05.534Z,102655.78
2023-02-19T18:58:31.930Z,102656.66
2023-02-19T19:00:59.423Z,102649.81
2023-02-19T19:03:26.005Z,102646.38
2023-02-19T19:05:52.680Z,102652.44
2023-02-19T19:08:19.060Z,102653.31
2023-02-19T19:10:45.514Z,102656.78
2023-02-19T19:13:11.963Z,102656.78
2023-02-19T19:15:41.233Z,102667.97
2023-02-19T19:18:08.469Z,102662.84
2023-02-19T19:20:34.870Z,102666.28
2023-02-19T19:23:01.240Z,102669.75
2023-02-19T19:25:27.649Z,102674.06
2023-02-19T19:27:57.166Z,102676.66
2023-02-19T19:30:23.845Z,102683.53
2023-02-19T19:32:52.376Z,102679.25
2023-02-19T19:35:20.100Z,102670.63
2023-02-19T19:37:46.705Z,102664.56
2023-02-19T19:40:13.285Z,102674.94
2023-02-19T19:42:39.768Z,102680.94
2023-02-19T19:45:06.783Z,102668.88
2023-02-19T19:47:33.288Z,102675.81
2023-02-19T19:49:59.860Z,102679.25
2023-02-19T19:52:26.255Z,102674.94
2023-02-19T19:54:54.138Z,102668.03
2023-02-19T19:57:21.041Z,102656.84
2023-02-19T19:59:51.292Z,102659.41
2023-02-19T20:02:18.753Z,102653.41
2023-02-19T20:04:45.202Z,102656.84
2023-02-19T20:07:11.779Z,102663.72
2023-02-19T20:09:38.420Z,102669.78
2023-02-19T20:12:05.405Z,102660.31
2023-02-19T20:14:32.061Z,102659.44
2023-02-19T20:16:58.433Z,102657.72
2023-02-19T20:19:24.865Z,102655.13
2023-02-19T20:21:53.411Z,102652.53
2023-02-19T20:24:25.985Z,102655.13
2023-02-19T20:27:00.157Z,102653.44
2023-02-19T20:29:29.169Z,102655.16
2023-02-19T20:31:59.018Z,102653.41
2023-02-19T20:34:26.284Z,102661.16
2023-02-19T20:36:52.791Z,102660.31
2023-02-19T20:39:20.692Z,102656.88
2023-02-19T20:41:49.612Z,102657.72
2023-02-19T20:44:17.358Z,102659.47
2023-02-19T20:46:45.464Z,102653.44
2023-02-19T20:49:12.730Z,102662.03
2023-02-19T20:51:47.553Z,102649.13
2023-02-19T20:54:16.567Z,102649.13
2023-02-19T20:56:51.146Z,102656.84
2023-02-19T20:59:19.178Z,102642.25
2023-02-19T21:01:45.853Z,102637.94
2023-02-19T21:04:15.665Z,102625.91
2023-02-19T21:06:42.058Z,102615.56
2023-02-19T21:09:08.444Z,102614.69
2023-02-19T21:11:34.891Z,102612.13
2023-02-19T21:14:01.350Z,102614.69
2023-02-19T21:16:32.254Z,102604.38
2023-02-19T21:19:00.121Z,102608.66
2023-02-19T21:21:26.609Z,102610.41
2023-02-19T21:23:58.107Z,102606.97
2023-02-19T21:26:25.477Z,102608.66
2023-02-19T21:28:52.485Z,102605.25
2023-02-19T21:31:20.309Z,102611.25
2023-02-19T21:33:47.092Z,102618.16
2023-02-19T21:36:13.796Z,102617.25
2023-02-19T21:38:40.373Z,102625.00
2023-02-19T21:41:06.755Z,102630.19
2023-02-19T21:43:33.122Z,102624.16
2023-02-19T21:45:59.524Z,102622.44
2023-02-19T21:48:26.056Z,102627.59
2023-02-19T21:50:52.404Z,102625.88
2023-02-19T21:53:19.328Z,102618.13
2023-02-19T21:55:57.867Z,102618.13
2023-02-19T21:58:25.164Z,102625.00
2023-02-19T22:00:54.199Z,102618.97
2023-02-19T22:03:20.768Z,102625.88
2023-02-19T22:05:47.313Z,102614.69
2023-02-19T22:08:15.519Z,102619.84
2023-02-19T22:10:42.458Z,102615.53
2023-02-19T22:13:09.861Z,102620.69
2023-02-19T22:15:36.803Z,102624.16
2023-02-19T22:18:03.607Z,102619.84
2023-02-19T22:20:30.020Z,102608.69
2023-02-19T22:22:56.394Z,102614.66
2023-02-19T22:25:22.843Z,102611.25
2023-02-19T22:27:49.408Z,102598.34
2023-02-19T22:30:16.090Z,102601.78
2023-02-19T22:32:42.613Z,102589.75
2023-02-19T22:35:09.175Z,102582.84
2023-02-19T22:37:35.529Z,102598.34
2023-02-19T22:40:02.002Z,102595.75
2023-02-19T22:42:29.398Z,102591.44
2023-02-19T22:44:56.096Z,102582.00
2023-02-19T22:47:22.520Z,102588.88
2023-02-19T22:49:48.938Z,102584.56
2023-02-19T22:52:15.497Z,102583.72
2023-02-19T22:54:41.891Z,102577.69
2023-02-19T22:57:08.312Z,102567.38
2023-02-19T22:59:34.832Z,102575.97
2023-02-19T23:02:01.290Z,102563.94
2023-02-19T23:04:27.789Z,102561.38
2023-02-19T23:06:54.483Z,102554.47
2023-02-19T23:09:27.042Z,102555.31
2023-02-19T23:12:00.342Z,102551.88
2023-02-19T23:14:26.717Z,102551.88
2023-02-19T23:16:53.117Z,102554.44
2023-02-19T23:19:19.634Z,102556.16
2023-02-19T23:21:46.638Z,102547.56
2023-02-19T23:24:14.359Z,102553.59
2023-02-19T23:26:49.532Z,102556.16
2023-02-19T23:29:18.785Z,102558.75
2023-02-19T23:31:45.254Z,102563.91
2023-02-19T23:34:11.806Z,102574.25
2023-02-19T23:36:45.662Z,102572.50
2023-02-19T23:39:15.238Z,102580.25
2023-02-19T23:41:55.365Z,102572.53
2023-02-19T23:44:23.673Z,102569.09
2023-02-19T23:46:51.485Z,102569.94
2023-02-19T23:49:19.101Z,102547.56
2023-02-19T23:51:45.844Z,102539.81
2023-02-19T23:54:12.730Z,102529.47
2023-02-19T23:56:39.168Z,102531.22
2023-02-19T23:59:05.581Z,102521.72
